Spirit Of Columbia — WCM2054 — position and weather

sailwx.info

Track history (hours):
 
Tides and Currents Weather Stations Pressure Air Temp Water Temp Dewpoint Dewpoint Depression Visibility Wind Speed Wind Dir Waves Ship Positions

Spirit Of Columbia

Owner: Cruise West, SEATTLE, WA. More information available from US FCC via Universal Licensing System and Coast Guard Vessel Documentation Center.

Last reported at 2011-Jan-08 14:19 UTC. Time now 2019-Jul-16 12:05 UTC.
Position N 49°18' W 123°51'.
Warning: this ship's position is years out of date!

Length 61 m; draft 0.21 m.

Type: Passenger vessel. MMSI: 369783000.

Date/timePositionNaut miles runAvg speedWind from/ knotsBaromVisibWave heightAir tempDewpointWater temp
2011-Jan-08 14:19N 49°18' W 123°51'9 8.4
2011-Jan-08 13:13N 49°12' W 123°41'9 9.1
2011-Jan-08 12:15N 49°05' W 123°32'11 9.5
2011-Jan-08 11:08N 48°56' W 123°22'5 7.4
2011-Jan-08 10:25N 48°51' W 123°19'7 5.4
2011-Jan-08 09:12N 48°45' W 123°18'8 8.1
2011-Jan-08 08:13N 48°38' W 123°14'14 6.6
2011-Jan-08 06:06N 48°25' W 123°03'5 7.7
2011-Jan-08 05:26N 48°21' W 122°59'16 4.6
2011-Jan-08 01:52N 48°09' W 122°42'4 4.3
2011-Jan-08 00:49N 48°05' W 122°38'5 7.7
2011-Jan-08 00:10N 48°01' W 122°36'5 6.7
2011-Jan-07 23:29N 47°57' W 122°32'11 5.4
2011-Jan-07 21:22N 47°47' W 122°25'4 3.4
2011-Jan-07 20:20N 47°43' W 122°25'0 8.2
2011-Jan-07 20:17N 47°43' W 122°25'3 3.3
2011-Jan-07 19:25N 47°40' W 122°24'0 1.0
2011-Jan-07 19:10N 47°40' W 122°23'0 0.3
2011-Jan-07 18:27N 47°40' W 122°23'0 0.2
2011-Jan-07 17:59N 47°40' W 122°23'0 0.3
2011-Jan-07 17:29N 47°40' W 122°23'0 0.4
2011-Jan-07 16:34N 47°40' W 122°24'0 0.0
2011-Jan-07 16:29N 47°40' W 122°24'0 0.0
2011-Jan-07 15:22N 47°40' W 122°24'0 0.0
2011-Jan-07 15:18N 47°40' W 122°24'0 0.0
2011-Jan-07 14:10N 47°40' W 122°24'0 0.0
2011-Jan-07 13:58N 47°40' W 122°24'0 0.0
2011-Jan-07 12:48N 47°40' W 122°24'0 0.0
2011-Jan-07 12:17N 47°40' W 122°24'0 0.0
2011-Jan-07 11:43N 47°40' W 122°24'0 0.0
2011-Jan-07 11:29N 47°40' W 122°24'0 0.0
2011-Jan-07 10:33N 47°40' W 122°24'0 0.0
2011-Jan-07 10:31N 47°40' W 122°24'0 0.0
2011-Jan-07 10:28N 47°40' W 122°24'0 0.0
2011-Jan-07 09:33N 47°40' W 122°24'0 0.0
2011-Jan-07 09:22N 47°40' W 122°24'0 0.0
2011-Jan-07 08:12N 47°40' W 122°24'0 0.0
2011-Jan-07 08:07N 47°40' W 122°24'0 0.0
2011-Jan-07 07:02N 47°40' W 122°24'0 0.0
2011-Jan-07 05:57N 47°40' W 122°24'0 0.0
2011-Jan-07 04:57N 47°40' W 122°24'0 0.0
2011-Jan-07 04:41N 47°40' W 122°24'0 0.0
2011-Jan-07 04:32N 47°40' W 122°24'0 0.0
2011-Jan-07 03:21N 47°40' W 122°24'0 0.0
2011-Jan-07 03:20N 47°40' W 122°24'0 0.0
2011-Jan-07 02:11N 47°40' W 122°24'0 0.0
2011-Jan-07 02:10N 47°40' W 122°24'0 0.0
2011-Jan-07 01:12N 47°40' W 122°24'0 0.0
2011-Jan-07 00:51N 47°40' W 122°24'0 0.0
2011-Jan-07 00:04N 47°40' W 122°24'0 0.0
2011-Jan-06 23:41N 47°40' W 122°24'0 0.0
2011-Jan-06 23:31N 47°40' W 122°24'0 0.0
2011-Jan-06 23:19N 47°40' W 122°24'0 0.0
2011-Jan-06 22:15N 47°40' W 122°24'0 0.0
2011-Jan-06 21:31N 47°40' W 122°24'0 0.0
2011-Jan-06 21:05N 47°40' W 122°24'0 0.0
2011-Jan-06 19:50N 47°40' W 122°24'0 0.0
2011-Jan-06 18:46N 47°40' W 122°24'0 0.0
2011-Jan-06 18:40N 47°40' W 122°24'0 0.0
2011-Jan-06 18:30N 47°40' W 122°24'0 0.0
2011-Jan-06 17:45N 47°40' W 122°24'0 0.0
2011-Jan-06 17:30N 47°40' W 122°24'0 0.0
2011-Jan-06 17:14N 47°40' W 122°24'0 0.0
2011-Jan-05 20:44N 47°40' W 122°24'0 0.0
2011-Jan-05 20:26N 47°40' W 122°24'0 0.0
2011-Jan-05 20:17N 47°40' W 122°24'  
Track history (hours):
 
Tides and Currents Weather Stations Pressure Air Temp Water Temp Dewpoint Dewpoint Depression Visibility Wind Speed Wind Dir Waves Ship Positions

Spirit Of Columbia

Owner: Cruise West, SEATTLE, WA. More information available from US FCC via Universal Licensing System and Coast Guard Vessel Documentation Center.

Last reported at 2011-Jan-08 14:19 UTC. Time now 2019-Jul-16 12:05 UTC.
Position N 49°18' W 123°51'.
Warning: this ship's position is years out of date!

Length 61 m; draft 0.21 m.

Type: Passenger vessel. MMSI: 369783000.

Date/timePositionNaut miles runAvg speedWind from/ knotsBaromVisibWave heightAir tempDewpointWater temp
2011-Jan-08 14:19N 49°18' W 123°51'9 8.4
2011-Jan-08 13:13N 49°12' W 123°41'9 9.1
2011-Jan-08 12:15N 49°05' W 123°32'11 9.5
2011-Jan-08 11:08N 48°56' W 123°22'5 7.4
2011-Jan-08 10:25N 48°51' W 123°19'7 5.4
2011-Jan-08 09:12N 48°45' W 123°18'8 8.1
2011-Jan-08 08:13N 48°38' W 123°14'14 6.6
2011-Jan-08 06:06N 48°25' W 123°03'5 7.7
2011-Jan-08 05:26N 48°21' W 122°59'16 4.6
2011-Jan-08 01:52N 48°09' W 122°42'4 4.3
2011-Jan-08 00:49N 48°05' W 122°38'5 7.7
2011-Jan-08 00:10N 48°01' W 122°36'5 6.7
2011-Jan-07 23:29N 47°57' W 122°32'11 5.4
2011-Jan-07 21:22N 47°47' W 122°25'4 3.4
2011-Jan-07 20:20N 47°43' W 122°25'0 8.2
2011-Jan-07 20:17N 47°43' W 122°25'3 3.3
2011-Jan-07 19:25N 47°40' W 122°24'0 1.0
2011-Jan-07 19:10N 47°40' W 122°23'0 0.3
2011-Jan-07 18:27N 47°40' W 122°23'0 0.2
2011-Jan-07 17:59N 47°40' W 122°23'0 0.3
2011-Jan-07 17:29N 47°40' W 122°23'0 0.4
2011-Jan-07 16:34N 47°40' W 122°24'0 0.0
2011-Jan-07 16:29N 47°40' W 122°24'0 0.0
2011-Jan-07 15:22N 47°40' W 122°24'0 0.0
2011-Jan-07 15:18N 47°40' W 122°24'0 0.0
2011-Jan-07 14:10N 47°40' W 122°24'0 0.0
2011-Jan-07 13:58N 47°40' W 122°24'0 0.0
2011-Jan-07 12:48N 47°40' W 122°24'0 0.0
2011-Jan-07 12:17N 47°40' W 122°24'0 0.0
2011-Jan-07 11:43N 47°40' W 122°24'0 0.0
2011-Jan-07 11:29N 47°40' W 122°24'0 0.0
2011-Jan-07 10:33N 47°40' W 122°24'0 0.0
2011-Jan-07 10:31N 47°40' W 122°24'0 0.0
2011-Jan-07 10:28N 47°40' W 122°24'0 0.0
2011-Jan-07 09:33N 47°40' W 122°24'0 0.0
2011-Jan-07 09:22N 47°40' W 122°24'0 0.0
2011-Jan-07 08:12N 47°40' W 122°24'0 0.0
2011-Jan-07 08:07N 47°40' W 122°24'0 0.0
2011-Jan-07 07:02N 47°40' W 122°24'0 0.0
2011-Jan-07 05:57N 47°40' W 122°24'0 0.0
2011-Jan-07 04:57N 47°40' W 122°24'0 0.0
2011-Jan-07 04:41N 47°40' W 122°24'0 0.0
2011-Jan-07 04:32N 47°40' W 122°24'0 0.0
2011-Jan-07 03:21N 47°40' W 122°24'0 0.0
2011-Jan-07 03:20N 47°40' W 122°24'0 0.0
2011-Jan-07 02:11N 47°40' W 122°24'0 0.0
2011-Jan-07 02:10N 47°40' W 122°24'0 0.0
2011-Jan-07 01:12N 47°40' W 122°24'0 0.0
2011-Jan-07 00:51N 47°40' W 122°24'0 0.0
2011-Jan-07 00:04N 47°40' W 122°24'0 0.0
2011-Jan-06 23:41N 47°40' W 122°24'0 0.0
2011-Jan-06 23:31N 47°40' W 122°24'0 0.0
2011-Jan-06 23:19N 47°40' W 122°24'0 0.0
2011-Jan-06 22:15N 47°40' W 122°24'0 0.0
2011-Jan-06 21:31N 47°40' W 122°24'0 0.0
2011-Jan-06 21:05N 47°40' W 122°24'0 0.0
2011-Jan-06 19:50N 47°40' W 122°24'0 0.0
2011-Jan-06 18:46N 47°40' W 122°24'0 0.0
2011-Jan-06 18:40N 47°40' W 122°24'0 0.0
2011-Jan-06 18:30N 47°40' W 122°24'0 0.0
2011-Jan-06 17:45N 47°40' W 122°24'0 0.0
2011-Jan-06 17:30N 47°40' W 122°24'0 0.0
2011-Jan-06 17:14N 47°40' W 122°24'0 0.0
2011-Jan-05 20:44N 47°40' W 122°24'0 0.0
2011-Jan-05 20:26N 47°40' W 122°24'0 0.0
2011-Jan-05 20:17N 47°40' W 122°24'  

Dump ship's entire track history